TGW561 RPMD-WSSS
Flight info
| Callsign | TGW561 |
|---|---|
| Flight time | 3h 11m |
| Altitude | 38000 |
| Route | DEWIN1C DEWIN W10 ZAM A341 VSN W461 BRU M646 TOMAN KARTO2B |
| Aircraft | A21N/M-SDE2FGHIJ3J7RWYZ/LB1D1 |
Departure
| Time | 2026-05-06 14:14 |
|---|---|
| Airport | Francisco Bangoy International Airport (RPMD) |
Arrival
| Time | 2026-05-06 17:25 |
|---|---|
| Airport | Singapore Changi Airport (WSSS) |
| Time | Latitude | Longitude | Altitude | Speed | Heading |
|---|---|---|---|---|---|
| 2026-05-06 13:22 | 7.13032 | 125.64650 | 107 ft | 0 kts | 322° |
| 2026-05-06 13:58 | 7.13019 | 125.64661 | 107 ft | 4 kts | 319° |
| 2026-05-06 13:59 | 7.13003 | 125.64674 | 107 ft | 4 kts | 320° |
| 2026-05-06 13:59 | 7.12983 | 125.64691 | 106 ft | 4 kts | 321° |
| 2026-05-06 13:59 | 7.12963 | 125.64700 | 107 ft | 4 kts | 17° |
| 2026-05-06 13:59 | 7.12948 | 125.64690 | 107 ft | 1 kts | 49° |
| 2026-05-06 14:00 | 7.12964 | 125.64708 | 107 ft | 4 kts | 49° |
| 2026-05-06 14:00 | 7.12982 | 125.64729 | 107 ft | 4 kts | 49° |
| 2026-05-06 14:00 | 7.12987 | 125.64735 | 107 ft | 0 kts | 49° |
| 2026-05-06 14:05 | 7.12993 | 125.64743 | 107 ft | 4 kts | 49° |
| 2026-05-06 14:06 | 7.13011 | 125.64771 | 107 ft | 6 kts | 76° |
| 2026-05-06 14:06 | 7.13002 | 125.64820 | 107 ft | 9 kts | 123° |
| 2026-05-06 14:06 | 7.12950 | 125.64864 | 107 ft | 11 kts | 146° |
| 2026-05-06 14:06 | 7.12882 | 125.64914 | 107 ft | 12 kts | 142° |
| 2026-05-06 14:07 | 7.12905 | 125.64985 | 106 ft | 14 kts | 46° |
| 2026-05-06 14:07 | 7.12972 | 125.65061 | 106 ft | 16 kts | 49° |
| 2026-05-06 14:07 | 7.13048 | 125.65149 | 105 ft | 17 kts | 50° |
| 2026-05-06 14:07 | 7.13130 | 125.65246 | 105 ft | 19 kts | 49° |
| 2026-05-06 14:08 | 7.13219 | 125.65348 | 104 ft | 20 kts | 49° |
| 2026-05-06 14:08 | 7.13308 | 125.65452 | 103 ft | 17 kts | 49° |
| 2026-05-06 14:08 | 7.13377 | 125.65507 | 104 ft | 12 kts | 6° |
| 2026-05-06 14:08 | 7.13456 | 125.65528 | 106 ft | 12 kts | 47° |
| 2026-05-06 14:09 | 7.13432 | 125.65579 | 105 ft | 10 kts | 175° |
| 2026-05-06 14:09 | 7.13403 | 125.65563 | 105 ft | 0 kts | 233° |
| 2026-05-06 14:13 | 7.13392 | 125.65550 | 104 ft | 7 kts | 230° |
| 2026-05-06 14:13 | 7.13230 | 125.65360 | 105 ft | 73 kts | 229° |
| 2026-05-06 14:13 | 7.12737 | 125.64788 | 107 ft | 140 kts | 229° |
| 2026-05-06 14:13 | 7.12027 | 125.63967 | 362 ft | 161 kts | 229° |
| 2026-05-06 14:14 | 7.11246 | 125.63142 | 979 ft | 162 kts | 225° |
| 2026-05-06 14:14 | 7.10466 | 125.62308 | 1587 ft | 164 kts | 227° |
| 2026-05-06 14:14 | 7.09678 | 125.61434 | 2047 ft | 180 kts | 228° |
| 2026-05-06 14:14 | 7.08799 | 125.60448 | 2477 ft | 199 kts | 229° |
| 2026-05-06 14:15 | 7.07847 | 125.59386 | 3024 ft | 216 kts | 229° |
| 2026-05-06 14:15 | 7.06828 | 125.58139 | 3416 ft | 242 kts | 243° |
| 2026-05-06 14:15 | 7.06439 | 125.56453 | 3867 ft | 259 kts | 277° |
| 2026-05-06 14:15 | 7.07066 | 125.54751 | 4516 ft | 265 kts | 309° |
| 2026-05-06 14:16 | 7.08516 | 125.53640 | 5334 ft | 266 kts | 338° |
| 2026-05-06 14:16 | 7.10282 | 125.53016 | 6157 ft | 274 kts | 342° |
| 2026-05-06 14:16 | 7.12156 | 125.52377 | 6651 ft | 293 kts | 341° |
| 2026-05-06 14:16 | 7.14110 | 125.51662 | 7091 ft | 310 kts | 340° |
| 2026-05-06 14:17 | 7.16173 | 125.50877 | 7554 ft | 325 kts | 339° |
| 2026-05-06 14:17 | 7.18325 | 125.50023 | 8168 ft | 335 kts | 339° |
| 2026-05-06 14:17 | 7.20479 | 125.49157 | 8906 ft | 339 kts | 339° |
| 2026-05-06 14:17 | 7.22683 | 125.48264 | 9646 ft | 344 kts | 338° |
| 2026-05-06 14:18 | 7.24910 | 125.47357 | 10332 ft | 344 kts | 339° |
| 2026-05-06 14:18 | 7.27144 | 125.46437 | 11001 ft | 350 kts | 337° |
| 2026-05-06 14:18 | 7.29278 | 125.45213 | 11702 ft | 356 kts | 324° |
| 2026-05-06 14:18 | 7.31071 | 125.43470 | 12423 ft | 362 kts | 311° |
| 2026-05-06 14:19 | 7.32573 | 125.41413 | 13124 ft | 368 kts | 302° |
| 2026-05-06 14:19 | 7.33526 | 125.39172 | 13755 ft | 374 kts | 286° |
| 2026-05-06 14:19 | 7.33824 | 125.36535 | 14451 ft | 380 kts | 268° |
| 2026-05-06 14:19 | 7.33498 | 125.33914 | 15093 ft | 384 kts | 261° |
| 2026-05-06 14:20 | 7.33060 | 125.31267 | 15720 ft | 389 kts | 261° |
| 2026-05-06 14:20 | 7.32629 | 125.28545 | 16356 ft | 394 kts | 262° |
| 2026-05-06 14:20 | 7.32215 | 125.25800 | 16989 ft | 398 kts | 262° |
| 2026-05-06 14:20 | 7.31806 | 125.23024 | 17582 ft | 401 kts | 262° |
| 2026-05-06 14:21 | 7.31390 | 125.20228 | 18153 ft | 405 kts | 262° |
| 2026-05-06 14:21 | 7.30972 | 125.17400 | 18718 ft | 409 kts | 262° |
| 2026-05-06 14:21 | 7.30553 | 125.14549 | 19242 ft | 413 kts | 262° |
| 2026-05-06 14:21 | 7.30133 | 125.11674 | 19755 ft | 417 kts | 262° |
| 2026-05-06 14:22 | 7.29710 | 125.08778 | 20297 ft | 420 kts | 262° |
| 2026-05-06 14:22 | 7.29279 | 125.05859 | 20795 ft | 423 kts | 262° |
| 2026-05-06 14:22 | 7.28847 | 125.02954 | 21273 ft | 426 kts | 262° |
| 2026-05-06 14:22 | 7.28414 | 124.99986 | 21739 ft | 429 kts | 262° |
| 2026-05-06 14:23 | 7.27980 | 124.96992 | 22183 ft | 432 kts | 262° |
| 2026-05-06 14:23 | 7.27544 | 124.93990 | 22623 ft | 435 kts | 262° |
| 2026-05-06 14:23 | 7.27101 | 124.90951 | 23056 ft | 438 kts | 262° |
| 2026-05-06 14:23 | 7.26653 | 124.87894 | 23500 ft | 441 kts | 262° |
| 2026-05-06 14:24 | 7.26202 | 124.84832 | 23913 ft | 443 kts | 262° |
| 2026-05-06 14:24 | 7.25753 | 124.81784 | 24292 ft | 446 kts | 262° |
| 2026-05-06 14:24 | 7.25295 | 124.78678 | 24686 ft | 448 kts | 262° |
| 2026-05-06 14:24 | 7.24836 | 124.75563 | 25072 ft | 450 kts | 262° |
| 2026-05-06 14:25 | 7.24379 | 124.72462 | 25439 ft | 453 kts | 262° |
| 2026-05-06 14:25 | 7.23912 | 124.69309 | 25819 ft | 455 kts | 262° |
| 2026-05-06 14:25 | 7.23452 | 124.66186 | 26167 ft | 457 kts | 262° |
| 2026-05-06 14:25 | 7.22977 | 124.62963 | 26526 ft | 460 kts | 262° |
| 2026-05-06 14:26 | 7.22512 | 124.59813 | 26880 ft | 462 kts | 262° |
| 2026-05-06 14:26 | 7.22037 | 124.56606 | 27228 ft | 463 kts | 262° |
| 2026-05-06 14:26 | 7.21561 | 124.53384 | 27551 ft | 465 kts | 262° |
| 2026-05-06 14:26 | 7.21082 | 124.50144 | 27862 ft | 468 kts | 262° |
| 2026-05-06 14:27 | 7.20600 | 124.46901 | 28183 ft | 470 kts | 262° |
| 2026-05-06 14:27 | 7.20117 | 124.43633 | 28501 ft | 471 kts | 262° |
| 2026-05-06 14:27 | 7.19631 | 124.40355 | 28807 ft | 473 kts | 262° |
| 2026-05-06 14:27 | 7.19148 | 124.37100 | 29091 ft | 474 kts | 262° |
| 2026-05-06 14:28 | 7.18659 | 124.33807 | 29368 ft | 477 kts | 262° |
| 2026-05-06 14:28 | 7.18170 | 124.30489 | 29667 ft | 479 kts | 262° |
| 2026-05-06 14:28 | 7.17677 | 124.27167 | 30049 ft | 478 kts | 262° |
| 2026-05-06 14:28 | 7.17265 | 124.24404 | 30356 ft | 477 kts | 262° |
| 2026-05-06 14:29 | 7.16771 | 124.21009 | 30720 ft | 477 kts | 263° |
| 2026-05-06 14:29 | 7.16387 | 124.17692 | 31074 ft | 475 kts | 264° |
| 2026-05-06 14:29 | 7.16020 | 124.14392 | 31416 ft | 474 kts | 264° |
| 2026-05-06 14:29 | 7.15660 | 124.11136 | 31738 ft | 474 kts | 264° |
| 2026-05-06 14:30 | 7.15300 | 124.07852 | 32062 ft | 473 kts | 264° |
| 2026-05-06 14:30 | 7.14940 | 124.04571 | 32385 ft | 472 kts | 264° |
| 2026-05-06 14:30 | 7.14576 | 124.01280 | 32695 ft | 471 kts | 264° |
| 2026-05-06 14:30 | 7.14214 | 123.98005 | 33010 ft | 470 kts | 263° |
| 2026-05-06 14:31 | 7.13850 | 123.94736 | 33306 ft | 470 kts | 263° |
| 2026-05-06 14:31 | 7.13487 | 123.91473 | 33570 ft | 469 kts | 263° |
| 2026-05-06 14:31 | 7.13123 | 123.88194 | 33830 ft | 469 kts | 263° |
| 2026-05-06 14:31 | 7.12761 | 123.84930 | 34117 ft | 468 kts | 263° |
| 2026-05-06 14:32 | 7.12401 | 123.81703 | 34388 ft | 467 kts | 263° |
| 2026-05-06 14:32 | 7.12039 | 123.78451 | 34636 ft | 466 kts | 263° |
| 2026-05-06 14:32 | 7.11677 | 123.75200 | 34882 ft | 466 kts | 263° |
| 2026-05-06 14:32 | 7.11319 | 123.71963 | 35100 ft | 465 kts | 263° |
| 2026-05-06 14:33 | 7.10957 | 123.68715 | 35331 ft | 465 kts | 263° |
| 2026-05-06 14:33 | 7.10593 | 123.65485 | 35555 ft | 464 kts | 263° |
| 2026-05-06 14:33 | 7.10229 | 123.62254 | 35789 ft | 463 kts | 263° |
| 2026-05-06 14:33 | 7.09868 | 123.59040 | 36014 ft | 462 kts | 263° |
| 2026-05-06 14:34 | 7.09514 | 123.55855 | 36205 ft | 462 kts | 263° |
| 2026-05-06 14:34 | 7.09152 | 123.52629 | 36381 ft | 462 kts | 263° |
| 2026-05-06 14:34 | 7.08790 | 123.49419 | 36568 ft | 462 kts | 263° |
| 2026-05-06 14:34 | 7.08430 | 123.46198 | 36771 ft | 461 kts | 263° |
| 2026-05-06 14:35 | 7.08072 | 123.43017 | 36981 ft | 459 kts | 263° |
| 2026-05-06 14:35 | 7.07721 | 123.39864 | 37201 ft | 457 kts | 263° |
| 2026-05-06 14:35 | 7.07367 | 123.36684 | 37436 ft | 455 kts | 263° |
| 2026-05-06 14:35 | 7.07015 | 123.33528 | 37683 ft | 453 kts | 263° |
| 2026-05-06 14:36 | 7.06661 | 123.30381 | 37874 ft | 451 kts | 263° |
| 2026-05-06 14:36 | 7.06420 | 123.28254 | 37926 ft | 452 kts | 263° |
| 2026-05-06 14:36 | 7.05603 | 123.20974 | 37911 ft | 451 kts | 263° |
| 2026-05-06 14:37 | 7.05009 | 123.15707 | 37904 ft | 451 kts | 263° |
| 2026-05-06 14:37 | 7.04305 | 123.09471 | 37901 ft | 450 kts | 263° |
| 2026-05-06 14:38 | 7.03594 | 123.03188 | 37900 ft | 451 kts | 263° |
| 2026-05-06 14:38 | 7.02886 | 122.96908 | 37902 ft | 451 kts | 263° |
| 2026-05-06 14:39 | 7.02176 | 122.90632 | 37900 ft | 451 kts | 263° |
| 2026-05-06 14:39 | 7.01468 | 122.84395 | 37903 ft | 452 kts | 263° |
| 2026-05-06 14:40 | 7.00756 | 122.78141 | 37901 ft | 451 kts | 263° |
| 2026-05-06 14:40 | 7.00044 | 122.71864 | 37902 ft | 451 kts | 263° |
| 2026-05-06 14:41 | 6.99330 | 122.65592 | 37899 ft | 450 kts | 263° |
| 2026-05-06 14:41 | 6.98622 | 122.59350 | 37897 ft | 451 kts | 263° |
| 2026-05-06 14:42 | 6.97909 | 122.53067 | 37900 ft | 451 kts | 263° |
| 2026-05-06 14:42 | 6.97193 | 122.46787 | 37902 ft | 451 kts | 263° |
| 2026-05-06 14:43 | 6.96479 | 122.40550 | 37901 ft | 450 kts | 263° |
| 2026-05-06 14:43 | 6.95763 | 122.34283 | 37909 ft | 450 kts | 263° |
| 2026-05-06 14:44 | 6.95048 | 122.28058 | 37911 ft | 450 kts | 263° |
| 2026-05-06 14:45 | 6.93953 | 122.18662 | 37907 ft | 451 kts | 263° |
| 2026-05-06 14:45 | 6.93236 | 122.12388 | 37903 ft | 450 kts | 263° |
| 2026-05-06 14:46 | 6.92512 | 122.06163 | 37910 ft | 450 kts | 261° |
| 2026-05-06 14:46 | 6.91070 | 122.00024 | 37911 ft | 450 kts | 255° |
| 2026-05-06 14:47 | 6.89502 | 121.93912 | 37911 ft | 450 kts | 255° |
| 2026-05-06 14:47 | 6.87971 | 121.87795 | 37909 ft | 451 kts | 256° |
| 2026-05-06 14:48 | 6.86447 | 121.81681 | 37910 ft | 450 kts | 256° |
| 2026-05-06 14:48 | 6.84911 | 121.75609 | 37910 ft | 450 kts | 255° |
| 2026-05-06 14:49 | 6.83368 | 121.69490 | 37909 ft | 450 kts | 255° |
| 2026-05-06 14:49 | 6.81816 | 121.63370 | 37906 ft | 451 kts | 255° |
| 2026-05-06 14:50 | 6.80268 | 121.57314 | 37914 ft | 450 kts | 255° |
| 2026-05-06 14:50 | 6.78735 | 121.51209 | 37913 ft | 451 kts | 255° |
| 2026-05-06 14:51 | 6.77183 | 121.45076 | 37903 ft | 451 kts | 255° |
| 2026-05-06 14:51 | 6.75642 | 121.38997 | 37899 ft | 451 kts | 255° |
| 2026-05-06 14:52 | 6.74091 | 121.32879 | 37900 ft | 451 kts | 255° |
| 2026-05-06 14:52 | 6.72533 | 121.26748 | 37900 ft | 451 kts | 255° |
| 2026-05-06 14:53 | 6.70982 | 121.20623 | 37902 ft | 451 kts | 255° |
| 2026-05-06 14:53 | 6.69441 | 121.14503 | 37903 ft | 451 kts | 255° |
| 2026-05-06 14:54 | 6.67897 | 121.08398 | 37898 ft | 451 kts | 255° |
| 2026-05-06 14:54 | 6.66350 | 121.02304 | 37901 ft | 451 kts | 256° |
| 2026-05-06 14:55 | 6.64801 | 120.96185 | 37904 ft | 451 kts | 255° |
| 2026-05-06 14:55 | 6.63248 | 120.90101 | 37907 ft | 452 kts | 255° |
| 2026-05-06 14:56 | 6.61689 | 120.83973 | 37903 ft | 452 kts | 255° |
| 2026-05-06 14:56 | 6.60126 | 120.77845 | 37906 ft | 452 kts | 255° |
| 2026-05-06 14:57 | 6.58569 | 120.71717 | 37903 ft | 452 kts | 255° |
| 2026-05-06 14:57 | 6.57002 | 120.65581 | 37900 ft | 453 kts | 255° |
| 2026-05-06 14:58 | 6.55436 | 120.59434 | 37904 ft | 452 kts | 255° |
| 2026-05-06 14:58 | 6.53880 | 120.53338 | 37897 ft | 452 kts | 255° |
| 2026-05-06 14:59 | 6.52321 | 120.47215 | 37900 ft | 452 kts | 255° |
| 2026-05-06 14:59 | 6.50748 | 120.41073 | 37903 ft | 453 kts | 255° |
| 2026-05-06 15:00 | 6.49196 | 120.35006 | 37896 ft | 453 kts | 255° |
| 2026-05-06 15:00 | 6.47625 | 120.28866 | 37888 ft | 453 kts | 255° |
| 2026-05-06 15:01 | 6.46057 | 120.22729 | 37889 ft | 453 kts | 255° |
| 2026-05-06 15:01 | 6.44483 | 120.16577 | 37894 ft | 454 kts | 255° |
| 2026-05-06 15:02 | 6.42906 | 120.10420 | 37894 ft | 453 kts | 255° |
| 2026-05-06 15:02 | 6.41330 | 120.04277 | 37890 ft | 453 kts | 255° |
| 2026-05-06 15:03 | 6.39755 | 119.98175 | 37886 ft | 453 kts | 254° |
| 2026-05-06 15:03 | 6.38172 | 119.92027 | 37885 ft | 453 kts | 255° |
| 2026-05-06 15:04 | 6.36620 | 119.85914 | 37891 ft | 453 kts | 255° |
| 2026-05-06 15:04 | 6.35044 | 119.79771 | 37886 ft | 453 kts | 255° |
| 2026-05-06 15:05 | 6.33468 | 119.73645 | 37882 ft | 453 kts | 255° |
| 2026-05-06 15:05 | 6.31890 | 119.67505 | 37888 ft | 453 kts | 255° |
| 2026-05-06 15:06 | 6.30313 | 119.61367 | 37892 ft | 453 kts | 255° |
| 2026-05-06 15:06 | 6.28729 | 119.55218 | 37883 ft | 453 kts | 255° |
| 2026-05-06 15:07 | 6.27160 | 119.49117 | 37882 ft | 453 kts | 255° |
| 2026-05-06 15:07 | 6.25580 | 119.42978 | 37875 ft | 453 kts | 255° |
| 2026-05-06 15:08 | 6.24000 | 119.36843 | 37877 ft | 452 kts | 254° |
| 2026-05-06 15:08 | 6.22428 | 119.30752 | 37874 ft | 452 kts | 254° |
| 2026-05-06 15:09 | 6.20845 | 119.24624 | 37878 ft | 452 kts | 254° |
| 2026-05-06 15:09 | 6.19262 | 119.18490 | 37882 ft | 452 kts | 254° |
| 2026-05-06 15:10 | 6.17703 | 119.12448 | 37882 ft | 452 kts | 254° |
| 2026-05-06 15:10 | 6.16121 | 119.06327 | 37878 ft | 453 kts | 254° |
| 2026-05-06 15:11 | 6.14539 | 119.00198 | 37881 ft | 453 kts | 254° |
| 2026-05-06 15:11 | 6.12964 | 118.94104 | 37881 ft | 452 kts | 254° |
| 2026-05-06 15:12 | 6.11379 | 118.87993 | 37879 ft | 452 kts | 254° |
| 2026-05-06 15:12 | 6.09798 | 118.81877 | 37881 ft | 452 kts | 254° |
| 2026-05-06 15:13 | 6.08214 | 118.75760 | 37885 ft | 452 kts | 254° |
| 2026-05-06 15:13 | 6.06641 | 118.69684 | 37883 ft | 452 kts | 253° |
| 2026-05-06 15:14 | 6.05052 | 118.63574 | 37876 ft | 452 kts | 253° |
| 2026-05-06 15:14 | 6.03734 | 118.58485 | 37883 ft | 451 kts | 253° |
| 2026-05-06 15:15 | 6.01896 | 118.51412 | 37878 ft | 451 kts | 253° |
| 2026-05-06 15:15 | 6.00291 | 118.45324 | 37882 ft | 451 kts | 253° |
| 2026-05-06 15:16 | 5.98686 | 118.39219 | 37875 ft | 451 kts | 253° |
| 2026-05-06 15:16 | 5.97094 | 118.33117 | 37880 ft | 451 kts | 253° |
| 2026-05-06 15:17 | 5.95508 | 118.27053 | 37881 ft | 451 kts | 253° |
| 2026-05-06 15:17 | 5.93905 | 118.20946 | 37879 ft | 451 kts | 253° |
| 2026-05-06 15:18 | 5.92304 | 118.14851 | 37883 ft | 451 kts | 253° |
| 2026-05-06 15:18 | 5.90706 | 118.08762 | 37884 ft | 451 kts | 253° |
| 2026-05-06 15:19 | 5.88881 | 118.02765 | 37877 ft | 450 kts | 250° |
| 2026-05-06 15:19 | 5.86982 | 117.96758 | 37877 ft | 450 kts | 250° |
| 2026-05-06 15:20 | 5.85111 | 117.90832 | 37888 ft | 450 kts | 250° |
| 2026-05-06 15:20 | 5.83217 | 117.84821 | 37889 ft | 450 kts | 250° |
| 2026-05-06 15:21 | 5.81321 | 117.78821 | 37880 ft | 450 kts | 250° |
| 2026-05-06 15:21 | 5.79744 | 117.73832 | 37884 ft | 451 kts | 250° |
| 2026-05-06 15:22 | 5.77543 | 117.66857 | 37884 ft | 451 kts | 250° |
| 2026-05-06 15:22 | 5.75952 | 117.61825 | 37879 ft | 451 kts | 250° |
| 2026-05-06 15:23 | 5.74065 | 117.55864 | 37878 ft | 451 kts | 250° |
| 2026-05-06 15:23 | 5.72164 | 117.49853 | 37885 ft | 450 kts | 250° |
| 2026-05-06 15:24 | 5.70273 | 117.43884 | 37882 ft | 451 kts | 250° |
| 2026-05-06 15:24 | 5.68344 | 117.37882 | 37879 ft | 451 kts | 250° |
| 2026-05-06 15:25 | 5.66449 | 117.31959 | 37869 ft | 451 kts | 250° |
| 2026-05-06 15:25 | 5.64536 | 117.25977 | 37871 ft | 451 kts | 250° |
| 2026-05-06 15:26 | 5.62617 | 117.19976 | 37879 ft | 451 kts | 250° |
| 2026-05-06 15:26 | 5.60689 | 117.13979 | 37879 ft | 451 kts | 250° |
| 2026-05-06 15:27 | 5.58768 | 117.07994 | 37869 ft | 451 kts | 250° |
| 2026-05-06 15:27 | 5.56830 | 117.01981 | 37868 ft | 451 kts | 250° |
| 2026-05-06 15:28 | 5.54902 | 116.96011 | 37868 ft | 452 kts | 251° |
| 2026-05-06 15:28 | 5.52968 | 116.90014 | 37873 ft | 451 kts | 251° |
| 2026-05-06 15:29 | 5.51031 | 116.84004 | 37868 ft | 452 kts | 251° |
| 2026-05-06 15:29 | 5.49091 | 116.78002 | 37878 ft | 452 kts | 251° |
| 2026-05-06 15:30 | 5.47171 | 116.72065 | 37866 ft | 452 kts | 251° |
| 2026-05-06 15:30 | 5.45227 | 116.66038 | 37863 ft | 452 kts | 251° |
| 2026-05-06 15:31 | 5.43295 | 116.60063 | 37859 ft | 452 kts | 251° |
| 2026-05-06 15:31 | 5.41349 | 116.54055 | 37856 ft | 452 kts | 251° |
| 2026-05-06 15:32 | 5.38435 | 116.45056 | 37858 ft | 452 kts | 251° |
| 2026-05-06 15:32 | 5.36487 | 116.39048 | 37861 ft | 453 kts | 251° |
| 2026-05-06 15:33 | 5.34540 | 116.33021 | 37856 ft | 453 kts | 251° |
| 2026-05-06 15:33 | 5.32622 | 116.27047 | 37856 ft | 452 kts | 251° |
| 2026-05-06 15:34 | 5.30678 | 116.21020 | 37859 ft | 453 kts | 251° |
| 2026-05-06 15:34 | 5.28737 | 116.15017 | 37858 ft | 452 kts | 251° |
| 2026-05-06 15:35 | 5.26795 | 116.09020 | 37852 ft | 452 kts | 251° |
| 2026-05-06 15:35 | 5.24859 | 116.03047 | 37866 ft | 452 kts | 251° |
| 2026-05-06 15:36 | 5.22909 | 115.97031 | 37867 ft | 452 kts | 251° |
| 2026-05-06 15:36 | 5.20960 | 115.91016 | 37868 ft | 453 kts | 251° |
| 2026-05-06 15:37 | 5.19019 | 115.85034 | 37870 ft | 453 kts | 251° |
| 2026-05-06 15:37 | 5.17064 | 115.79014 | 37868 ft | 453 kts | 251° |
| 2026-05-06 15:38 | 5.15114 | 115.72994 | 37885 ft | 453 kts | 251° |
| 2026-05-06 15:38 | 5.13170 | 115.67013 | 37882 ft | 453 kts | 251° |
| 2026-05-06 15:39 | 5.11198 | 115.60999 | 37880 ft | 453 kts | 251° |
| 2026-05-06 15:39 | 5.09242 | 115.55013 | 37876 ft | 453 kts | 251° |
| 2026-05-06 15:40 | 5.07276 | 115.49006 | 37872 ft | 452 kts | 251° |
| 2026-05-06 15:40 | 5.05312 | 115.43015 | 37879 ft | 452 kts | 251° |
| 2026-05-06 15:41 | 5.03347 | 115.37012 | 37876 ft | 453 kts | 251° |
| 2026-05-06 15:41 | 5.01397 | 115.31055 | 37878 ft | 453 kts | 251° |
| 2026-05-06 15:42 | 4.99428 | 115.25034 | 37881 ft | 453 kts | 251° |
| 2026-05-06 15:42 | 4.97470 | 115.19056 | 37888 ft | 453 kts | 251° |
| 2026-05-06 15:43 | 4.95503 | 115.13058 | 37891 ft | 453 kts | 251° |
| 2026-05-06 15:43 | 4.93531 | 115.07050 | 37902 ft | 453 kts | 251° |
| 2026-05-06 15:44 | 4.91574 | 115.01083 | 37900 ft | 452 kts | 251° |
| 2026-05-06 15:44 | 4.89606 | 114.95082 | 37899 ft | 453 kts | 251° |
| 2026-05-06 15:45 | 4.87647 | 114.89125 | 37906 ft | 453 kts | 250° |
| 2026-05-06 15:45 | 4.85440 | 114.83207 | 37910 ft | 453 kts | 248° |
| 2026-05-06 15:46 | 4.83194 | 114.77303 | 37909 ft | 453 kts | 248° |
| 2026-05-06 15:46 | 4.80962 | 114.71428 | 37909 ft | 453 kts | 248° |
| 2026-05-06 15:47 | 4.78723 | 114.65521 | 37908 ft | 453 kts | 248° |
| 2026-05-06 15:47 | 4.76476 | 114.59607 | 37910 ft | 453 kts | 248° |
| 2026-05-06 15:48 | 4.74230 | 114.53693 | 37907 ft | 454 kts | 248° |
| 2026-05-06 15:48 | 4.71980 | 114.47782 | 37899 ft | 453 kts | 248° |
| 2026-05-06 15:49 | 4.69747 | 114.41909 | 37901 ft | 453 kts | 248° |
| 2026-05-06 15:49 | 4.67499 | 114.35994 | 37899 ft | 453 kts | 248° |
| 2026-05-06 15:50 | 4.65270 | 114.30132 | 37893 ft | 453 kts | 248° |
| 2026-05-06 15:50 | 4.63021 | 114.24231 | 37902 ft | 453 kts | 248° |
| 2026-05-06 15:51 | 4.60786 | 114.18359 | 37910 ft | 453 kts | 248° |
| 2026-05-06 15:51 | 4.58538 | 114.12454 | 37911 ft | 453 kts | 248° |
| 2026-05-06 15:52 | 4.56278 | 114.06553 | 37911 ft | 453 kts | 248° |
| 2026-05-06 15:52 | 4.53994 | 114.00669 | 37911 ft | 453 kts | 248° |
| 2026-05-06 15:53 | 4.51712 | 113.94778 | 37913 ft | 453 kts | 248° |
| 2026-05-06 15:53 | 4.49441 | 113.88912 | 37904 ft | 453 kts | 248° |
| 2026-05-06 15:54 | 4.47160 | 113.83015 | 37903 ft | 455 kts | 248° |
| 2026-05-06 15:54 | 4.44871 | 113.77115 | 37899 ft | 453 kts | 248° |
| 2026-05-06 15:55 | 4.42997 | 113.72278 | 37898 ft | 453 kts | 248° |
| 2026-05-06 15:55 | 4.40336 | 113.65409 | 37901 ft | 453 kts | 248° |
| 2026-05-06 15:56 | 4.38071 | 113.59506 | 37896 ft | 453 kts | 248° |
| 2026-05-06 15:56 | 4.35804 | 113.53592 | 37901 ft | 453 kts | 248° |
| 2026-05-06 15:57 | 4.33539 | 113.47694 | 37900 ft | 454 kts | 248° |
| 2026-05-06 15:57 | 4.31280 | 113.41821 | 37902 ft | 453 kts | 248° |
| 2026-05-06 15:58 | 4.29007 | 113.35915 | 37905 ft | 454 kts | 248° |
| 2026-05-06 15:58 | 4.26737 | 113.30003 | 37903 ft | 455 kts | 248° |
| 2026-05-06 15:59 | 4.24467 | 113.24097 | 37902 ft | 454 kts | 248° |
| 2026-05-06 15:59 | 4.22182 | 113.18156 | 37899 ft | 455 kts | 248° |
| 2026-05-06 16:00 | 4.19912 | 113.12258 | 37895 ft | 455 kts | 248° |
| 2026-05-06 16:00 | 4.17642 | 113.06367 | 37891 ft | 456 kts | 248° |
| 2026-05-06 16:01 | 4.15361 | 113.00439 | 37892 ft | 456 kts | 248° |
| 2026-05-06 16:01 | 4.13079 | 112.94505 | 37889 ft | 456 kts | 248° |
| 2026-05-06 16:02 | 4.10809 | 112.88609 | 37890 ft | 456 kts | 248° |
| 2026-05-06 16:02 | 4.08516 | 112.82654 | 37888 ft | 457 kts | 247° |
| 2026-05-06 16:03 | 4.06228 | 112.76718 | 37890 ft | 457 kts | 248° |
| 2026-05-06 16:03 | 4.03951 | 112.70818 | 37881 ft | 457 kts | 248° |
| 2026-05-06 16:04 | 4.01663 | 112.64866 | 37877 ft | 457 kts | 248° |
| 2026-05-06 16:04 | 3.99376 | 112.58909 | 37880 ft | 457 kts | 248° |
| 2026-05-06 16:05 | 3.97096 | 112.52968 | 37878 ft | 458 kts | 248° |
| 2026-05-06 16:05 | 3.94816 | 112.47036 | 37877 ft | 458 kts | 247° |
| 2026-05-06 16:06 | 3.92518 | 112.41061 | 37875 ft | 458 kts | 248° |
| 2026-05-06 16:06 | 3.90239 | 112.35127 | 37878 ft | 459 kts | 247° |
| 2026-05-06 16:07 | 3.87941 | 112.29153 | 37880 ft | 459 kts | 248° |
| 2026-05-06 16:07 | 3.85658 | 112.23211 | 37882 ft | 459 kts | 247° |
| 2026-05-06 16:08 | 3.83364 | 112.17240 | 37880 ft | 459 kts | 247° |
| 2026-05-06 16:08 | 3.81063 | 112.11265 | 37878 ft | 459 kts | 247° |
| 2026-05-06 16:09 | 3.79151 | 112.06303 | 37882 ft | 459 kts | 247° |
| 2026-05-06 16:09 | 3.76858 | 112.00335 | 37876 ft | 459 kts | 247° |
| 2026-05-06 16:10 | 3.74583 | 111.94425 | 37867 ft | 459 kts | 247° |
| 2026-05-06 16:10 | 3.72279 | 111.88444 | 37876 ft | 459 kts | 247° |
| 2026-05-06 16:11 | 3.69993 | 111.82508 | 37881 ft | 459 kts | 247° |
| 2026-05-06 16:11 | 3.67708 | 111.76585 | 37884 ft | 459 kts | 248° |
| 2026-05-06 16:12 | 3.65409 | 111.70604 | 37886 ft | 462 kts | 248° |
| 2026-05-06 16:12 | 3.63097 | 111.64606 | 37886 ft | 465 kts | 248° |
| 2026-05-06 16:13 | 3.60769 | 111.58558 | 37886 ft | 466 kts | 248° |
| 2026-05-06 16:13 | 3.58433 | 111.52498 | 37885 ft | 466 kts | 248° |
| 2026-05-06 16:14 | 3.56103 | 111.46457 | 37887 ft | 466 kts | 248° |
| 2026-05-06 16:14 | 3.53765 | 111.40402 | 37890 ft | 466 kts | 248° |
| 2026-05-06 16:15 | 3.51434 | 111.34355 | 37891 ft | 466 kts | 248° |
| 2026-05-06 16:15 | 3.49092 | 111.28301 | 37890 ft | 466 kts | 248° |
| 2026-05-06 16:16 | 3.46760 | 111.22270 | 37882 ft | 466 kts | 248° |
| 2026-05-06 16:16 | 3.44419 | 111.16204 | 37884 ft | 467 kts | 248° |
| 2026-05-06 16:17 | 3.42075 | 111.10137 | 37886 ft | 465 kts | 248° |
| 2026-05-06 16:17 | 3.39750 | 111.04103 | 37883 ft | 466 kts | 248° |
| 2026-05-06 16:18 | 3.37410 | 110.98041 | 37884 ft | 466 kts | 248° |
| 2026-05-06 16:18 | 3.35065 | 110.91981 | 37885 ft | 466 kts | 248° |
| 2026-05-06 16:19 | 3.32741 | 110.85947 | 37876 ft | 467 kts | 248° |
| 2026-05-06 16:19 | 3.30394 | 110.79870 | 37880 ft | 467 kts | 248° |
| 2026-05-06 16:20 | 3.28058 | 110.73832 | 37886 ft | 466 kts | 248° |
| 2026-05-06 16:20 | 3.25731 | 110.67807 | 37887 ft | 467 kts | 248° |
| 2026-05-06 16:21 | 3.23381 | 110.61734 | 37891 ft | 468 kts | 248° |
| 2026-05-06 16:21 | 3.21040 | 110.55691 | 37894 ft | 468 kts | 248° |
| 2026-05-06 16:22 | 3.18678 | 110.49583 | 37889 ft | 468 kts | 248° |
| 2026-05-06 16:22 | 3.16343 | 110.43540 | 37889 ft | 468 kts | 248° |
| 2026-05-06 16:23 | 3.13991 | 110.37460 | 37892 ft | 468 kts | 248° |
| 2026-05-06 16:23 | 3.11637 | 110.31381 | 37889 ft | 468 kts | 248° |
| 2026-05-06 16:24 | 3.09285 | 110.25315 | 37899 ft | 468 kts | 248° |
| 2026-05-06 16:24 | 3.06949 | 110.19281 | 37901 ft | 467 kts | 247° |
| 2026-05-06 16:25 | 3.04603 | 110.13225 | 37903 ft | 467 kts | 248° |
| 2026-05-06 16:25 | 3.02251 | 110.07163 | 37900 ft | 467 kts | 248° |
| 2026-05-06 16:26 | 2.99901 | 110.01096 | 37899 ft | 468 kts | 248° |
| 2026-05-06 16:26 | 2.97548 | 109.95031 | 37902 ft | 468 kts | 248° |
| 2026-05-06 16:27 | 2.95208 | 109.89000 | 37904 ft | 468 kts | 248° |
| 2026-05-06 16:27 | 2.92854 | 109.82935 | 37904 ft | 467 kts | 248° |
| 2026-05-06 16:28 | 2.90500 | 109.76857 | 37902 ft | 467 kts | 248° |
| 2026-05-06 16:28 | 2.88149 | 109.70792 | 37901 ft | 467 kts | 248° |
| 2026-05-06 16:29 | 2.85813 | 109.64764 | 37900 ft | 466 kts | 248° |
| 2026-05-06 16:29 | 2.83454 | 109.58685 | 37901 ft | 467 kts | 248° |
| 2026-05-06 16:30 | 2.81506 | 109.53665 | 37912 ft | 466 kts | 248° |
| 2026-05-06 16:30 | 2.78782 | 109.46637 | 37898 ft | 466 kts | 248° |
| 2026-05-06 16:31 | 2.76433 | 109.40582 | 37900 ft | 467 kts | 248° |
| 2026-05-06 16:31 | 2.74080 | 109.34524 | 37900 ft | 466 kts | 248° |
| 2026-05-06 16:32 | 2.71738 | 109.28504 | 37900 ft | 466 kts | 248° |
| 2026-05-06 16:32 | 2.69382 | 109.22429 | 37900 ft | 466 kts | 248° |
| 2026-05-06 16:33 | 2.67052 | 109.16426 | 37901 ft | 466 kts | 248° |
| 2026-05-06 16:34 | 2.63520 | 109.07340 | 37903 ft | 466 kts | 248° |
| 2026-05-06 16:34 | 2.61181 | 109.01329 | 37905 ft | 466 kts | 248° |
| 2026-05-06 16:35 | 2.58841 | 108.95302 | 37899 ft | 466 kts | 248° |
| 2026-05-06 16:35 | 2.56496 | 108.89252 | 37900 ft | 465 kts | 248° |
| 2026-05-06 16:36 | 2.54180 | 108.83240 | 37902 ft | 465 kts | 248° |
| 2026-05-06 16:36 | 2.51850 | 108.77194 | 37901 ft | 466 kts | 248° |
| 2026-05-06 16:37 | 2.51064 | 108.75155 | 37901 ft | 465 kts | 248° |
| 2026-05-06 16:37 | 2.49314 | 108.70621 | 37900 ft | 465 kts | 248° |
| 2026-05-06 16:38 | 2.46986 | 108.64572 | 37900 ft | 466 kts | 247° |
| 2026-05-06 16:38 | 2.44656 | 108.58525 | 37902 ft | 465 kts | 248° |
| 2026-05-06 16:39 | 2.42324 | 108.52483 | 37902 ft | 464 kts | 248° |
| 2026-05-06 16:39 | 2.40002 | 108.46460 | 37902 ft | 464 kts | 248° |
| 2026-05-06 16:40 | 2.37694 | 108.40481 | 37901 ft | 464 kts | 248° |
| 2026-05-06 16:40 | 2.35386 | 108.34497 | 37900 ft | 464 kts | 248° |
| 2026-05-06 16:41 | 2.33062 | 108.28474 | 37900 ft | 463 kts | 248° |
| 2026-05-06 16:41 | 2.30743 | 108.22464 | 37899 ft | 463 kts | 248° |
| 2026-05-06 16:42 | 2.28421 | 108.16453 | 37901 ft | 462 kts | 248° |
| 2026-05-06 16:42 | 2.26119 | 108.10489 | 37901 ft | 463 kts | 248° |
| 2026-05-06 16:43 | 2.23798 | 108.04478 | 37901 ft | 463 kts | 248° |
| 2026-05-06 16:43 | 2.21472 | 107.98462 | 37901 ft | 462 kts | 248° |
| 2026-05-06 16:44 | 2.19162 | 107.92489 | 37902 ft | 463 kts | 248° |
| 2026-05-06 16:44 | 2.16832 | 107.86449 | 37900 ft | 467 kts | 248° |
| 2026-05-06 16:45 | 2.14483 | 107.80391 | 37897 ft | 468 kts | 248° |
| 2026-05-06 16:45 | 2.12127 | 107.74348 | 37896 ft | 469 kts | 248° |
| 2026-05-06 16:46 | 2.09757 | 107.68267 | 37895 ft | 468 kts | 248° |
| 2026-05-06 16:46 | 2.07403 | 107.62231 | 37891 ft | 469 kts | 248° |
| 2026-05-06 16:47 | 2.05029 | 107.56139 | 37888 ft | 469 kts | 248° |
| 2026-05-06 16:47 | 2.02663 | 107.50065 | 37884 ft | 469 kts | 247° |
| 2026-05-06 16:48 | 2.00301 | 107.44013 | 37891 ft | 470 kts | 248° |
| 2026-05-06 16:48 | 1.97935 | 107.37904 | 37878 ft | 469 kts | 248° |
| 2026-05-06 16:49 | 1.95589 | 107.31815 | 37881 ft | 469 kts | 248° |
| 2026-05-06 16:49 | 1.93238 | 107.25730 | 37886 ft | 470 kts | 248° |
| 2026-05-06 16:50 | 1.90911 | 107.19714 | 37896 ft | 470 kts | 248° |
| 2026-05-06 16:50 | 1.88551 | 107.13611 | 37893 ft | 470 kts | 248° |
| 2026-05-06 16:51 | 1.86192 | 107.07508 | 37890 ft | 470 kts | 248° |
| 2026-05-06 16:51 | 1.83830 | 107.01409 | 37891 ft | 471 kts | 248° |
| 2026-05-06 16:52 | 1.81480 | 106.95332 | 37885 ft | 470 kts | 248° |
| 2026-05-06 16:52 | 1.79113 | 106.89212 | 37884 ft | 471 kts | 248° |
| 2026-05-06 16:53 | 1.76751 | 106.83099 | 37890 ft | 472 kts | 248° |
| 2026-05-06 16:53 | 1.74398 | 106.77017 | 37891 ft | 472 kts | 248° |
| 2026-05-06 16:54 | 1.72029 | 106.70899 | 37891 ft | 472 kts | 248° |
| 2026-05-06 16:54 | 1.69667 | 106.64785 | 37892 ft | 472 kts | 248° |
| 2026-05-06 16:55 | 1.67308 | 106.58717 | 37893 ft | 471 kts | 248° |
| 2026-05-06 16:55 | 1.64942 | 106.52607 | 37898 ft | 471 kts | 248° |
| 2026-05-06 16:56 | 1.62574 | 106.46499 | 37890 ft | 471 kts | 248° |
| 2026-05-06 16:56 | 1.60205 | 106.40392 | 37892 ft | 471 kts | 248° |
| 2026-05-06 16:57 | 1.57850 | 106.34318 | 37892 ft | 471 kts | 248° |
| 2026-05-06 16:57 | 1.55478 | 106.28205 | 37886 ft | 472 kts | 248° |
| 2026-05-06 16:58 | 1.53102 | 106.22084 | 37893 ft | 472 kts | 248° |
| 2026-05-06 16:58 | 1.51129 | 106.17009 | 37894 ft | 472 kts | 248° |
| 2026-05-06 16:59 | 1.48749 | 106.10871 | 37899 ft | 472 kts | 248° |
| 2026-05-06 16:59 | 1.46385 | 106.04786 | 37895 ft | 472 kts | 248° |
| 2026-05-06 17:00 | 1.43621 | 105.98873 | 37894 ft | 470 kts | 239° |
| 2026-05-06 17:00 | 1.40286 | 105.93226 | 37895 ft | 471 kts | 239° |
| 2026-05-06 17:01 | 1.36996 | 105.87565 | 37893 ft | 471 kts | 239° |
| 2026-05-06 17:01 | 1.33736 | 105.81912 | 37893 ft | 471 kts | 239° |
| 2026-05-06 17:02 | 1.30472 | 105.76225 | 37891 ft | 471 kts | 239° |
| 2026-05-06 17:02 | 1.27214 | 105.70549 | 37795 ft | 467 kts | 239° |
| 2026-05-06 17:02 | 1.25602 | 105.67736 | 36973 ft | 468 kts | 239° |
| 2026-05-06 17:03 | 1.23977 | 105.64898 | 36044 ft | 470 kts | 239° |
| 2026-05-06 17:03 | 1.22348 | 105.62051 | 35096 ft | 472 kts | 239° |
| 2026-05-06 17:03 | 1.20749 | 105.59233 | 34241 ft | 472 kts | 241° |
| 2026-05-06 17:03 | 1.19467 | 105.56179 | 33426 ft | 470 kts | 253° |
| 2026-05-06 17:04 | 1.18885 | 105.53007 | 32688 ft | 469 kts | 265° |
| 2026-05-06 17:04 | 1.18763 | 105.49760 | 32010 ft | 467 kts | 268° |
| 2026-05-06 17:04 | 1.18705 | 105.46528 | 31312 ft | 465 kts | 269° |
| 2026-05-06 17:04 | 1.18646 | 105.43292 | 30631 ft | 463 kts | 268° |
| 2026-05-06 17:05 | 1.18573 | 105.40094 | 29964 ft | 461 kts | 268° |
| 2026-05-06 17:05 | 1.18490 | 105.36908 | 29278 ft | 458 kts | 268° |
| 2026-05-06 17:05 | 1.18410 | 105.33733 | 28587 ft | 456 kts | 268° |
| 2026-05-06 17:05 | 1.18328 | 105.30598 | 27929 ft | 453 kts | 268° |
| 2026-05-06 17:06 | 1.18251 | 105.27461 | 27264 ft | 450 kts | 268° |
| 2026-05-06 17:06 | 1.18172 | 105.24335 | 26580 ft | 449 kts | 268° |
| 2026-05-06 17:06 | 1.18091 | 105.21224 | 25894 ft | 446 kts | 268° |
| 2026-05-06 17:06 | 1.18012 | 105.18124 | 25236 ft | 444 kts | 268° |
| 2026-05-06 17:07 | 1.17932 | 105.15070 | 24583 ft | 440 kts | 268° |
| 2026-05-06 17:07 | 1.17857 | 105.12004 | 23896 ft | 438 kts | 268° |
| 2026-05-06 17:07 | 1.17782 | 105.08970 | 23233 ft | 435 kts | 268° |
| 2026-05-06 17:07 | 1.17720 | 105.05968 | 22581 ft | 432 kts | 268° |
| 2026-05-06 17:08 | 1.17655 | 105.02962 | 21919 ft | 428 kts | 268° |
| 2026-05-06 17:08 | 1.17592 | 105.00055 | 21271 ft | 422 kts | 269° |
| 2026-05-06 17:08 | 1.17533 | 104.97124 | 20621 ft | 416 kts | 269° |
| 2026-05-06 17:08 | 1.17475 | 104.94264 | 20011 ft | 410 kts | 269° |
| 2026-05-06 17:09 | 1.17418 | 104.91444 | 19450 ft | 403 kts | 269° |
| 2026-05-06 17:09 | 1.17358 | 104.88667 | 18909 ft | 396 kts | 269° |
| 2026-05-06 17:09 | 1.17299 | 104.85933 | 18395 ft | 389 kts | 269° |
| 2026-05-06 17:09 | 1.17239 | 104.83255 | 17895 ft | 382 kts | 269° |
| 2026-05-06 17:10 | 1.17185 | 104.80645 | 17410 ft | 376 kts | 269° |
| 2026-05-06 17:10 | 1.17124 | 104.78067 | 16928 ft | 375 kts | 269° |
| 2026-05-06 17:10 | 1.17056 | 104.75463 | 16438 ft | 375 kts | 269° |
| 2026-05-06 17:10 | 1.16990 | 104.72851 | 15946 ft | 375 kts | 269° |
| 2026-05-06 17:11 | 1.16922 | 104.70246 | 15449 ft | 374 kts | 269° |
| 2026-05-06 17:11 | 1.16853 | 104.67645 | 14978 ft | 374 kts | 269° |
| 2026-05-06 17:11 | 1.16788 | 104.65047 | 14487 ft | 372 kts | 269° |
| 2026-05-06 17:11 | 1.16724 | 104.62461 | 13984 ft | 372 kts | 269° |
| 2026-05-06 17:12 | 1.16660 | 104.59877 | 13476 ft | 370 kts | 269° |
| 2026-05-06 17:12 | 1.16598 | 104.57326 | 12992 ft | 362 kts | 269° |
| 2026-05-06 17:12 | 1.16533 | 104.54866 | 12539 ft | 355 kts | 269° |
| 2026-05-06 17:12 | 1.16471 | 104.52416 | 12106 ft | 349 kts | 269° |
| 2026-05-06 17:13 | 1.16409 | 104.49992 | 11659 ft | 348 kts | 269° |
| 2026-05-06 17:13 | 1.16348 | 104.47572 | 11192 ft | 349 kts | 269° |
| 2026-05-06 17:13 | 1.16289 | 104.45152 | 10772 ft | 345 kts | 268° |
| 2026-05-06 17:13 | 1.16225 | 104.42808 | 10496 ft | 330 kts | 268° |
| 2026-05-06 17:14 | 1.16168 | 104.40564 | 10280 ft | 316 kts | 268° |
| 2026-05-06 17:14 | 1.16038 | 104.38414 | 10070 ft | 304 kts | 265° |
| 2026-05-06 17:14 | 1.15862 | 104.36321 | 9635 ft | 300 kts | 265° |
| 2026-05-06 17:14 | 1.15686 | 104.34278 | 9198 ft | 298 kts | 264° |
| 2026-05-06 17:15 | 1.15512 | 104.32242 | 8780 ft | 295 kts | 264° |
| 2026-05-06 17:15 | 1.15341 | 104.30193 | 8384 ft | 296 kts | 265° |
| 2026-05-06 17:15 | 1.15169 | 104.28148 | 8002 ft | 294 kts | 264° |
| 2026-05-06 17:15 | 1.14999 | 104.26118 | 7629 ft | 289 kts | 265° |
| 2026-05-06 17:16 | 1.14832 | 104.24144 | 7274 ft | 287 kts | 264° |
| 2026-05-06 17:16 | 1.14665 | 104.22183 | 7159 ft | 276 kts | 264° |
| 2026-05-06 17:16 | 1.14516 | 104.20339 | 7132 ft | 258 kts | 265° |
| 2026-05-06 17:16 | 1.14396 | 104.18594 | 7038 ft | 246 kts | 265° |
| 2026-05-06 17:17 | 1.14281 | 104.16918 | 6879 ft | 237 kts | 265° |
| 2026-05-06 17:17 | 1.14168 | 104.15293 | 6576 ft | 233 kts | 265° |
| 2026-05-06 17:17 | 1.14052 | 104.13677 | 6248 ft | 232 kts | 265° |
| 2026-05-06 17:17 | 1.13939 | 104.12103 | 6000 ft | 223 kts | 265° |
| 2026-05-06 17:18 | 1.13833 | 104.10585 | 5772 ft | 214 kts | 265° |
| 2026-05-06 17:18 | 1.13728 | 104.09113 | 5437 ft | 211 kts | 265° |
| 2026-05-06 17:18 | 1.13618 | 104.07653 | 5062 ft | 209 kts | 265° |
| 2026-05-06 17:18 | 1.13517 | 104.06219 | 4675 ft | 209 kts | 265° |
| 2026-05-06 17:19 | 1.13415 | 104.04771 | 4406 ft | 209 kts | 265° |
| 2026-05-06 17:19 | 1.13310 | 104.03322 | 4267 ft | 209 kts | 265° |
| 2026-05-06 17:19 | 1.13204 | 104.01874 | 4261 ft | 209 kts | 265° |
| 2026-05-06 17:19 | 1.13227 | 104.00441 | 4114 ft | 205 kts | 285° |
| 2026-05-06 17:20 | 1.13918 | 103.99220 | 3719 ft | 206 kts | 316° |
| 2026-05-06 17:20 | 1.15048 | 103.98320 | 3506 ft | 208 kts | 324° |
| 2026-05-06 17:20 | 1.16214 | 103.97469 | 3510 ft | 208 kts | 323° |
| 2026-05-06 17:20 | 1.17359 | 103.96601 | 3274 ft | 204 kts | 323° |
| 2026-05-06 17:21 | 1.18468 | 103.95743 | 2963 ft | 201 kts | 322° |
| 2026-05-06 17:21 | 1.19548 | 103.94902 | 2721 ft | 195 kts | 322° |
| 2026-05-06 17:21 | 1.20640 | 103.94084 | 2655 ft | 196 kts | 330° |
| 2026-05-06 17:21 | 1.21938 | 103.93852 | 2641 ft | 195 kts | 9° |
| 2026-05-06 17:22 | 1.23208 | 103.94285 | 2635 ft | 193 kts | 25° |
| 2026-05-06 17:22 | 1.24382 | 103.94846 | 2441 ft | 177 kts | 26° |
| 2026-05-06 17:22 | 1.25461 | 103.95344 | 2057 ft | 163 kts | 24° |
| 2026-05-06 17:22 | 1.26481 | 103.95785 | 1561 ft | 157 kts | 23° |
| 2026-05-06 17:23 | 1.27435 | 103.96191 | 1157 ft | 137 kts | 22° |
| 2026-05-06 17:23 | 1.28288 | 103.96554 | 993 ft | 131 kts | 22° |
| 2026-05-06 17:23 | 1.29123 | 103.96908 | 840 ft | 130 kts | 22° |
| 2026-05-06 17:23 | 1.29959 | 103.97262 | 674 ft | 130 kts | 22° |
| 2026-05-06 17:24 | 1.30792 | 103.97616 | 504 ft | 130 kts | 22° |
| 2026-05-06 17:24 | 1.31624 | 103.97969 | 332 ft | 130 kts | 22° |
| 2026-05-06 17:24 | 1.32459 | 103.98321 | 169 ft | 130 kts | 23° |
| 2026-05-06 17:24 | 1.33276 | 103.98669 | 36 ft | 129 kts | 23° |
| 2026-05-06 17:25 | 1.34024 | 103.98979 | 29 ft | 92 kts | 22° |
| 2026-05-06 17:25 | 1.34459 | 103.99161 | 29 ft | 51 kts | 22° |
| 2026-05-06 17:25 | 1.34668 | 103.99238 | 29 ft | 23 kts | 13° |
| 2026-05-06 17:25 | 1.34833 | 103.99240 | 29 ft | 25 kts | 355° |
| 2026-05-06 17:26 | 1.34990 | 103.99225 | 29 ft | 16 kts | 353° |
| 2026-05-06 17:26 | 1.35097 | 103.99233 | 29 ft | 16 kts | 19° |
| 2026-05-06 17:26 | 1.35159 | 103.99260 | 29 ft | 0 kts | 24° |
| 2026-05-06 17:26 | 1.35171 | 103.99258 | 29 ft | 5 kts | 346° |
| 2026-05-06 17:27 | 1.35221 | 103.99250 | 29 ft | 9 kts | 351° |
| 2026-05-06 17:27 | 1.35291 | 103.99238 | 29 ft | 9 kts | 351° |
| 2026-05-06 17:27 | 1.35364 | 103.99227 | 29 ft | 12 kts | 360° |
| 2026-05-06 17:27 | 1.35437 | 103.99282 | 29 ft | 15 kts | 47° |
| 2026-05-06 17:28 | 1.35511 | 103.99364 | 29 ft | 17 kts | 49° |
| 2026-05-06 17:28 | 1.35584 | 103.99439 | 29 ft | 14 kts | 30° |
| 2026-05-06 17:28 | 1.35683 | 103.99482 | 29 ft | 17 kts | 22° |
| 2026-05-06 17:28 | 1.35798 | 103.99530 | 29 ft | 19 kts | 22° |
| 2026-05-06 17:29 | 1.35929 | 103.99585 | 29 ft | 21 kts | 23° |
| 2026-05-06 17:29 | 1.36068 | 103.99644 | 29 ft | 20 kts | 22° |
| 2026-05-06 17:29 | 1.36192 | 103.99696 | 29 ft | 14 kts | 22° |
| 2026-05-06 17:29 | 1.36288 | 103.99736 | 29 ft | 14 kts | 23° |
| 2026-05-06 17:30 | 1.36368 | 103.99770 | 29 ft | 8 kts | 23° |
| 2026-05-06 17:30 | 1.36423 | 103.99758 | 29 ft | 11 kts | 301° |
| 2026-05-06 17:30 | 1.36457 | 103.99681 | 29 ft | 14 kts | 293° |
| 2026-05-06 17:30 | 1.36498 | 103.99586 | 29 ft | 16 kts | 292° |
| 2026-05-06 17:31 | 1.36542 | 103.99480 | 29 ft | 17 kts | 293° |
| 2026-05-06 17:31 | 1.36592 | 103.99363 | 29 ft | 20 kts | 293° |
| 2026-05-06 17:31 | 1.36636 | 103.99257 | 29 ft | 14 kts | 293° |
| 2026-05-06 17:31 | 1.36672 | 103.99172 | 29 ft | 11 kts | 292° |
| 2026-05-06 17:32 | 1.36623 | 103.99126 | 29 ft | 11 kts | 180° |
| 2026-05-06 17:32 | 1.36541 | 103.99134 | 29 ft | 11 kts | 174° |
| 2026-05-06 17:32 | 1.36507 | 103.99138 | 29 ft | 1 kts | 174° |
| 2026-05-06 17:32 | 1.36492 | 103.99139 | 29 ft | 4 kts | 179° |
| 2026-05-06 17:33 | 1.36478 | 103.99109 | 29 ft | 5 kts | 268° |
| 2026-05-06 17:33 | 1.36474 | 103.99073 | 29 ft | 6 kts | 263° |
| 2026-05-06 17:33 | 1.36473 | 103.99060 | 29 ft | 0 kts | 263° |